Terminal Aerodrome Forecast
Issued by NWS Wilmington, OH

Current Version | Previous Version | Graphics & Text | Print | Product List | Glossary On
Versions: 1 2 3 4 5 6 7 8 9 10 11 12 13 14 15 16 17 18
000
FTUS41 KILN 200500
TAFILN
TAF
KILN 200521Z 2006/2106 27012KT P6SM BKN035
     FM201300 25010KT P6SM SCT035
     FM201500 25012G20KT P6SM SCT035
     FM201800 25015G23KT P6SM BKN035
     FM210000 25013KT P6SM VCSH OVC025=

USA.gov is the U.S. government's official web portal to all federal, state and local government web resources and services.